sensor_id;sensor_type;location;lat;lon;timestamp;P1;durP1;ratioP1;P2;durP2;ratioP2
36185;SDS011;22228;53.222;7.446;2022-12-08T00:00:31;4.93;;;3.17;;
36185;SDS011;22228;53.222;7.446;2022-12-08T00:02:52;8.20;;;3.37;;
36185;SDS011;22228;53.222;7.446;2022-12-08T00:05:12;7.00;;;2.87;;
36185;SDS011;22228;53.222;7.446;2022-12-08T00:07:51;5.97;;;2.90;;
36185;SDS011;22228;53.222;7.446;2022-12-08T00:10:30;7.87;;;3.10;;
36185;SDS011;22228;53.222;7.446;2022-12-08T00:12:51;5.97;;;3.43;;
36185;SDS011;22228;53.222;7.446;2022-12-08T00:15:11;7.73;;;3.93;;
36185;SDS011;22228;53.222;7.446;2022-12-08T00:17:32;5.57;;;3.63;;
36185;SDS011;22228;53.222;7.446;2022-12-08T00:19:52;5.57;;;4.03;;
36185;SDS011;22228;53.222;7.446;2022-12-08T00:22:13;9.43;;;3.50;;
36185;SDS011;22228;53.222;7.446;2022-12-08T00:24:35;10.63;;;3.47;;
36185;SDS011;22228;53.222;7.446;2022-12-08T00:26:58;9.00;;;4.13;;
36185;SDS011;22228;53.222;7.446;2022-12-08T00:29:19;6.90;;;4.27;;
36185;SDS011;22228;53.222;7.446;2022-12-08T00:31:40;8.30;;;3.53;;
36185;SDS011;22228;53.222;7.446;2022-12-08T00:34:00;4.87;;;3.53;;
36185;SDS011;22228;53.222;7.446;2022-12-08T00:36:21;5.07;;;2.37;;
36185;SDS011;22228;53.222;7.446;2022-12-08T00:38:42;4.10;;;1.70;;
36185;SDS011;22228;53.222;7.446;2022-12-08T00:41:03;3.17;;;2.30;;
36185;SDS011;22228;53.222;7.446;2022-12-08T00:43:29;6.93;;;2.00;;
36185;SDS011;22228;53.222;7.446;2022-12-08T00:45:49;2.40;;;1.10;;
36185;SDS011;22228;53.222;7.446;2022-12-08T00:48:10;2.83;;;1.37;;
36185;SDS011;22228;53.222;7.446;2022-12-08T00:50:30;3.33;;;1.50;;
36185;SDS011;22228;53.222;7.446;2022-12-08T00:52:51;2.60;;;1.90;;
36185;SDS011;22228;53.222;7.446;2022-12-08T00:55:11;2.37;;;1.70;;
36185;SDS011;22228;53.222;7.446;2022-12-08T00:57:32;6.93;;;2.70;;
36185;SDS011;22228;53.222;7.446;2022-12-08T00:59:53;5.37;;;3.03;;
36185;SDS011;22228;53.222;7.446;2022-12-08T01:02:14;4.77;;;3.10;;
36185;SDS011;22228;53.222;7.446;2022-12-08T01:04:35;6.20;;;4.53;;
36185;SDS011;22228;53.222;7.446;2022-12-08T01:06:56;9.10;;;4.90;;
36185;SDS011;22228;53.222;7.446;2022-12-08T01:09:17;10.23;;;5.73;;
36185;SDS011;22228;53.222;7.446;2022-12-08T01:11:38;11.83;;;5.00;;
36185;SDS011;22228;53.222;7.446;2022-12-08T01:13:58;7.23;;;4.97;;
36185;SDS011;22228;53.222;7.446;2022-12-08T04:00:10;3.20;;;1.30;;
36185;SDS011;22228;53.222;7.446;2022-12-08T04:02:31;1.60;;;1.30;;
36185;SDS011;22228;53.222;7.446;2022-12-08T04:04:51;2.53;;;1.50;;
36185;SDS011;22228;53.222;7.446;2022-12-08T04:07:12;3.30;;;1.30;;
36185;SDS011;22228;53.222;7.446;2022-12-08T04:09:33;1.70;;;1.10;;
36185;SDS011;22228;53.222;7.446;2022-12-08T04:11:53;1.50;;;0.70;;
36185;SDS011;22228;53.222;7.446;2022-12-08T04:14:14;1.67;;;0.80;;
36185;SDS011;22228;53.222;7.446;2022-12-08T04:16:36;2.00;;;0.70;;
36185;SDS011;22228;53.222;7.446;2022-12-08T04:18:56;2.10;;;1.00;;
36185;SDS011;22228;53.222;7.446;2022-12-08T04:21:17;0.73;;;0.73;;
36185;SDS011;22228;53.222;7.446;2022-12-08T04:23:37;0.57;;;0.57;;
36185;SDS011;22228;53.222;7.446;2022-12-08T04:25:57;1.10;;;0.70;;
36185;SDS011;22228;53.222;7.446;2022-12-08T04:28:18;1.57;;;0.60;;
36185;SDS011;22228;53.222;7.446;2022-12-08T04:30:39;1.07;;;0.80;;
36185;SDS011;22228;53.222;7.446;2022-12-08T04:33:01;0.70;;;0.70;;
36185;SDS011;22228;53.222;7.446;2022-12-08T04:35:21;1.33;;;0.70;;
36185;SDS011;22228;53.222;7.446;2022-12-08T04:37:42;2.27;;;0.93;;
36185;SDS011;22228;53.222;7.446;2022-12-08T04:40:03;0.97;;;0.97;;
36185;SDS011;22228;53.222;7.446;2022-12-08T04:42:24;1.00;;;0.90;;
36185;SDS011;22228;53.222;7.446;2022-12-08T04:44:45;1.83;;;1.07;;
36185;SDS011;22228;53.222;7.446;2022-12-08T04:47:05;1.10;;;1.00;;
36185;SDS011;22228;53.222;7.446;2022-12-08T04:49:27;1.03;;;0.90;;
36185;SDS011;22228;53.222;7.446;2022-12-08T04:51:48;1.50;;;1.30;;
36185;SDS011;22228;53.222;7.446;2022-12-08T04:54:08;2.17;;;1.27;;
36185;SDS011;22228;53.222;7.446;2022-12-08T04:56:29;1.90;;;1.30;;
36185;SDS011;22228;53.222;7.446;2022-12-08T04:58:50;1.50;;;1.10;;
36185;SDS011;22228;53.222;7.446;2022-12-08T05:01:10;1.43;;;1.33;;
36185;SDS011;22228;53.222;7.446;2022-12-08T05:03:31;2.17;;;1.40;;
36185;SDS011;22228;53.222;7.446;2022-12-08T05:05:53;1.60;;;1.33;;
36185;SDS011;22228;53.222;7.446;2022-12-08T05:08:13;1.40;;;1.30;;
36185;SDS011;22228;53.222;7.446;2022-12-08T05:10:34;2.73;;;1.37;;
36185;SDS011;22228;53.222;7.446;2022-12-08T05:12:55;1.30;;;1.20;;
36185;SDS011;22228;53.222;7.446;2022-12-08T05:15:17;1.40;;;1.30;;
36185;SDS011;22228;53.222;7.446;2022-12-08T05:17:37;1.30;;;1.20;;
36185;SDS011;22228;53.222;7.446;2022-12-08T05:19:57;1.90;;;1.30;;
36185;SDS011;22228;53.222;7.446;2022-12-08T05:22:19;1.57;;;1.00;;
36185;SDS011;22228;53.222;7.446;2022-12-08T05:24:40;1.83;;;1.07;;
36185;SDS011;22228;53.222;7.446;2022-12-08T05:27:00;1.07;;;0.97;;
36185;SDS011;22228;53.222;7.446;2022-12-08T05:29:21;0.77;;;0.77;;
36185;SDS011;22228;53.222;7.446;2022-12-08T05:31:41;3.17;;;0.77;;
36185;SDS011;22228;53.222;7.446;2022-12-08T05:34:02;2.07;;;0.80;;
36185;SDS011;22228;53.222;7.446;2022-12-08T05:36:23;0.90;;;0.70;;
36185;SDS011;22228;53.222;7.446;2022-12-08T05:38:45;2.43;;;1.00;;
36185;SDS011;22228;53.222;7.446;2022-12-08T05:41:05;2.20;;;0.83;;
36185;SDS011;22228;53.222;7.446;2022-12-08T05:43:26;1.90;;;1.03;;
36185;SDS011;22228;53.222;7.446;2022-12-08T05:45:47;1.83;;;1.20;;
36185;SDS011;22228;53.222;7.446;2022-12-08T05:48:08;2.10;;;0.97;;
36185;SDS011;22228;53.222;7.446;2022-12-08T05:50:28;1.77;;;0.90;;
36185;SDS011;22228;53.222;7.446;2022-12-08T05:52:49;1.33;;;1.00;;
36185;SDS011;22228;53.222;7.446;2022-12-08T05:55:10;2.10;;;0.73;;
36185;SDS011;22228;53.222;7.446;2022-12-08T05:57:31;2.60;;;0.83;;
36185;SDS011;22228;53.222;7.446;2022-12-08T05:59:51;1.00;;;0.90;;
36185;SDS011;22228;53.222;7.446;2022-12-08T06:02:12;1.43;;;1.17;;
36185;SDS011;22228;53.222;7.446;2022-12-08T06:04:32;0.70;;;0.70;;
36185;SDS011;22228;53.222;7.446;2022-12-08T06:06:52;1.80;;;1.10;;
36185;SDS011;22228;53.222;7.446;2022-12-08T06:09:13;2.20;;;1.00;;
36185;SDS011;22228;53.222;7.446;2022-12-08T06:11:35;1.70;;;1.03;;
36185;SDS011;22228;53.222;7.446;2022-12-08T06:13:56;1.40;;;1.30;;
36185;SDS011;22228;53.222;7.446;2022-12-08T06:16:16;1.80;;;1.00;;
36185;SDS011;22228;53.222;7.446;2022-12-08T06:18:37;2.63;;;1.33;;
36185;SDS011;22228;53.222;7.446;2022-12-08T06:21:01;3.07;;;1.30;;
36185;SDS011;22228;53.222;7.446;2022-12-08T06:23:22;1.93;;;1.70;;
36185;SDS011;22228;53.222;7.446;2022-12-08T06:25:43;5.50;;;1.80;;
36185;SDS011;22228;53.222;7.446;2022-12-08T06:28:05;2.50;;;1.70;;
36185;SDS011;22228;53.222;7.446;2022-12-08T06:30:26;2.10;;;1.60;;
36185;SDS011;22228;53.222;7.446;2022-12-08T06:32:46;2.73;;;1.43;;
36185;SDS011;22228;53.222;7.446;2022-12-08T06:35:07;2.33;;;1.20;;
36185;SDS011;22228;53.222;7.446;2022-12-08T06:37:28;2.03;;;1.13;;
36185;SDS011;22228;53.222;7.446;2022-12-08T06:39:48;1.73;;;1.03;;
36185;SDS011;22228;53.222;7.446;2022-12-08T06:42:09;4.33;;;1.00;;
36185;SDS011;22228;53.222;7.446;2022-12-08T06:44:48;3.23;;;1.20;;
36185;SDS011;22228;53.222;7.446;2022-12-08T06:47:09;0.83;;;0.80;;
36185;SDS011;22228;53.222;7.446;2022-12-08T06:49:29;2.80;;;1.00;;
36185;SDS011;22228;53.222;7.446;2022-12-08T06:51:50;3.33;;;1.33;;
36185;SDS011;22228;53.222;7.446;2022-12-08T06:54:11;4.30;;;1.03;;
36185;SDS011;22228;53.222;7.446;2022-12-08T06:56:31;3.90;;;1.20;;
36185;SDS011;22228;53.222;7.446;2022-12-08T06:58:52;2.40;;;0.87;;
36185;SDS011;22228;53.222;7.446;2022-12-08T07:01:14;2.80;;;1.00;;
36185;SDS011;22228;53.222;7.446;2022-12-08T07:03:35;1.47;;;1.00;;
36185;SDS011;22228;53.222;7.446;2022-12-08T07:05:56;1.63;;;1.13;;
36185;SDS011;22228;53.222;7.446;2022-12-08T07:08:17;4.30;;;1.47;;
36185;SDS011;22228;53.222;7.446;2022-12-08T07:10:37;2.33;;;1.53;;
36185;SDS011;22228;53.222;7.446;2022-12-08T07:12:58;3.60;;;2.07;;
36185;SDS011;22228;53.222;7.446;2022-12-08T07:15:18;4.53;;;2.07;;
36185;SDS011;22228;53.222;7.446;2022-12-08T07:17:40;4.43;;;2.30;;
36185;SDS011;22228;53.222;7.446;2022-12-08T07:20:01;2.97;;;1.50;;
36185;SDS011;22228;53.222;7.446;2022-12-08T07:22:21;2.13;;;1.97;;
36185;SDS011;22228;53.222;7.446;2022-12-08T07:24:42;2.87;;;2.07;;
36185;SDS011;22228;53.222;7.446;2022-12-08T07:27:02;1.80;;;1.57;;
36185;SDS011;22228;53.222;7.446;2022-12-08T07:29:23;4.30;;;1.90;;
36185;SDS011;22228;53.222;7.446;2022-12-08T07:31:44;1.97;;;1.60;;
36185;SDS011;22228;53.222;7.446;2022-12-08T07:34:05;1.80;;;1.70;;
36185;SDS011;22228;53.222;7.446;2022-12-08T07:36:26;3.37;;;1.97;;
36185;SDS011;22228;53.222;7.446;2022-12-08T07:38:46;3.07;;;1.67;;
36185;SDS011;22228;53.222;7.446;2022-12-08T07:41:10;2.30;;;1.77;;
36185;SDS011;22228;53.222;7.446;2022-12-08T07:43:32;8.33;;;2.60;;
36185;SDS011;22228;53.222;7.446;2022-12-08T07:45:52;1.97;;;1.77;;
36185;SDS011;22228;53.222;7.446;2022-12-08T07:48:13;2.23;;;1.70;;
36185;SDS011;22228;53.222;7.446;2022-12-08T07:50:34;2.20;;;2.00;;
36185;SDS011;22228;53.222;7.446;2022-12-08T07:52:55;3.53;;;1.77;;
36185;SDS011;22228;53.222;7.446;2022-12-08T07:55:15;5.60;;;1.90;;
36185;SDS011;22228;53.222;7.446;2022-12-08T07:57:36;2.73;;;1.60;;
36185;SDS011;22228;53.222;7.446;2022-12-08T07:59:56;2.50;;;1.57;;
36185;SDS011;22228;53.222;7.446;2022-12-08T08:02:17;1.87;;;1.60;;
36185;SDS011;22228;53.222;7.446;2022-12-08T08:04:38;2.90;;;1.70;;
36185;SDS011;22228;53.222;7.446;2022-12-08T08:07:00;4.17;;;1.60;;
36185;SDS011;22228;53.222;7.446;2022-12-08T08:09:21;1.80;;;1.70;;
36185;SDS011;22228;53.222;7.446;2022-12-08T08:11:41;2.13;;;1.60;;
36185;SDS011;22228;53.222;7.446;2022-12-08T08:14:02;3.43;;;2.40;;
36185;SDS011;22228;53.222;7.446;2022-12-08T08:16:23;3.27;;;2.27;;
36185;SDS011;22228;53.222;7.446;2022-12-08T08:18:45;2.83;;;2.63;;
36185;SDS011;22228;53.222;7.446;2022-12-08T08:21:06;1.60;;;1.50;;
36185;SDS011;22228;53.222;7.446;2022-12-08T08:23:27;4.97;;;1.57;;
36185;SDS011;22228;53.222;7.446;2022-12-08T08:25:48;1.83;;;1.50;;
36185;SDS011;22228;53.222;7.446;2022-12-08T08:28:09;2.73;;;1.30;;
36185;SDS011;22228;53.222;7.446;2022-12-08T08:30:29;2.90;;;1.47;;
36185;SDS011;22228;53.222;7.446;2022-12-08T08:32:50;2.23;;;1.57;;
36185;SDS011;22228;53.222;7.446;2022-12-08T08:35:10;1.67;;;1.57;;
36185;SDS011;22228;53.222;7.446;2022-12-08T08:37:30;2.87;;;1.80;;
36185;SDS011;22228;53.222;7.446;2022-12-08T08:39:52;2.80;;;1.60;;
36185;SDS011;22228;53.222;7.446;2022-12-08T08:42:14;2.87;;;1.37;;
36185;SDS011;22228;53.222;7.446;2022-12-08T08:44:35;2.17;;;1.77;;
36185;SDS011;22228;53.222;7.446;2022-12-08T08:46:56;4.60;;;1.40;;
36185;SDS011;22228;53.222;7.446;2022-12-08T08:49:17;3.53;;;1.70;;
36185;SDS011;22228;53.222;7.446;2022-12-08T08:51:37;7.57;;;1.83;;
36185;SDS011;22228;53.222;7.446;2022-12-08T08:53:58;4.03;;;1.57;;
36185;SDS011;22228;53.222;7.446;2022-12-08T08:56:20;3.10;;;1.37;;
36185;SDS011;22228;53.222;7.446;2022-12-08T08:58:40;2.70;;;1.87;;
36185;SDS011;22228;53.222;7.446;2022-12-08T09:01:01;1.70;;;1.40;;
36185;SDS011;22228;53.222;7.446;2022-12-08T09:03:21;4.20;;;1.50;;
36185;SDS011;22228;53.222;7.446;2022-12-08T09:05:42;5.90;;;1.50;;
36185;SDS011;22228;53.222;7.446;2022-12-08T09:08:02;2.63;;;1.10;;
36185;SDS011;22228;53.222;7.446;2022-12-08T09:10:23;2.90;;;1.40;;
36185;SDS011;22228;53.222;7.446;2022-12-08T09:12:45;1.30;;;1.20;;
36185;SDS011;22228;53.222;7.446;2022-12-08T09:15:06;2.40;;;1.23;;
36185;SDS011;22228;53.222;7.446;2022-12-08T09:17:26;1.43;;;1.23;;
36185;SDS011;22228;53.222;7.446;2022-12-08T09:19:47;2.00;;;1.70;;
36185;SDS011;22228;53.222;7.446;2022-12-08T09:22:07;2.17;;;1.63;;
36185;SDS011;22228;53.222;7.446;2022-12-08T09:24:28;3.63;;;1.80;;
36185;SDS011;22228;53.222;7.446;2022-12-08T09:26:48;1.83;;;1.73;;
36185;SDS011;22228;53.222;7.446;2022-12-08T09:29:10;7.57;;;5.67;;
36185;SDS011;22228;53.222;7.446;2022-12-08T09:31:32;1.50;;;1.40;;
36185;SDS011;22228;53.222;7.446;2022-12-08T09:33:52;2.60;;;1.20;;
36185;SDS011;22228;53.222;7.446;2022-12-08T09:36:13;3.57;;;1.27;;
36185;SDS011;22228;53.222;7.446;2022-12-08T09:38:33;2.47;;;1.53;;
36185;SDS011;22228;53.222;7.446;2022-12-08T09:40:54;3.30;;;3.10;;
36185;SDS011;22228;53.222;7.446;2022-12-08T09:43:17;4.57;;;2.97;;
36185;SDS011;22228;53.222;7.446;2022-12-08T09:45:54;2.17;;;1.90;;
36185;SDS011;22228;53.222;7.446;2022-12-08T09:48:16;1.60;;;1.50;;
36185;SDS011;22228;53.222;7.446;2022-12-08T09:50:42;1.70;;;1.43;;
36185;SDS011;22228;53.222;7.446;2022-12-08T09:53:08;3.67;;;1.90;;
36185;SDS011;22228;53.222;7.446;2022-12-08T09:55:35;4.10;;;2.03;;
36185;SDS011;22228;53.222;7.446;2022-12-08T09:58:00;2.50;;;2.30;;
36185;SDS011;22228;53.222;7.446;2022-12-08T10:00:23;10.00;;;5.90;;
36185;SDS011;22228;53.222;7.446;2022-12-08T10:02:45;3.87;;;2.67;;
36185;SDS011;22228;53.222;7.446;2022-12-08T10:05:11;5.40;;;4.20;;
36185;SDS011;22228;53.222;7.446;2022-12-08T10:07:35;2.67;;;2.47;;
36185;SDS011;22228;53.222;7.446;2022-12-08T10:10:02;3.33;;;2.20;;
36185;SDS011;22228;53.222;7.446;2022-12-08T10:12:32;3.00;;;2.70;;
36185;SDS011;22228;53.222;7.446;2022-12-08T10:15:01;3.03;;;2.83;;
36185;SDS011;22228;53.222;7.446;2022-12-08T10:17:29;4.20;;;2.53;;
36185;SDS011;22228;53.222;7.446;2022-12-08T10:19:55;5.50;;;2.70;;
36185;SDS011;22228;53.222;7.446;2022-12-08T10:22:21;2.80;;;2.60;;
36185;SDS011;22228;53.222;7.446;2022-12-08T10:24:45;3.47;;;2.53;;
36185;SDS011;22228;53.222;7.446;2022-12-08T10:27:11;3.80;;;2.53;;
36185;SDS011;22228;53.222;7.446;2022-12-08T10:29:32;4.47;;;2.80;;
36185;SDS011;22228;53.222;7.446;2022-12-08T10:31:54;2.90;;;2.70;;
36185;SDS011;22228;53.222;7.446;2022-12-08T10:34:17;2.43;;;2.20;;
36185;SDS011;22228;53.222;7.446;2022-12-08T10:36:46;2.93;;;2.40;;
36185;SDS011;22228;53.222;7.446;2022-12-08T10:39:19;3.93;;;2.63;;
36185;SDS011;22228;53.222;7.446;2022-12-08T10:41:50;4.07;;;2.90;;
36185;SDS011;22228;53.222;7.446;2022-12-08T10:44:10;4.77;;;2.70;;
36185;SDS011;22228;53.222;7.446;2022-12-08T10:46:31;4.23;;;2.80;;
36185;SDS011;22228;53.222;7.446;2022-12-08T10:48:52;4.07;;;2.67;;
36185;SDS011;22228;53.222;7.446;2022-12-08T10:51:20;3.00;;;2.70;;
36185;SDS011;22228;53.222;7.446;2022-12-08T10:53:44;4.57;;;2.13;;
36185;SDS011;22228;53.222;7.446;2022-12-08T10:56:10;8.63;;;3.00;;
36185;SDS011;22228;53.222;7.446;2022-12-08T10:58:34;3.63;;;2.20;;
36185;SDS011;22228;53.222;7.446;2022-12-08T11:01:00;3.93;;;2.20;;
36185;SDS011;22228;53.222;7.446;2022-12-08T11:03:24;3.70;;;2.30;;
36185;SDS011;22228;53.222;7.446;2022-12-08T11:05:47;3.93;;;2.53;;
36185;SDS011;22228;53.222;7.446;2022-12-08T11:08:08;6.63;;;2.30;;
36185;SDS011;22228;53.222;7.446;2022-12-08T11:10:33;4.40;;;2.17;;
36185;SDS011;22228;53.222;7.446;2022-12-08T11:12:57;4.67;;;2.10;;
36185;SDS011;22228;53.222;7.446;2022-12-08T11:15:18;3.47;;;1.80;;
36185;SDS011;22228;53.222;7.446;2022-12-08T11:17:39;3.40;;;2.10;;
36185;SDS011;22228;53.222;7.446;2022-12-08T11:20:03;5.83;;;1.70;;
36185;SDS011;22228;53.222;7.446;2022-12-08T11:22:38;4.43;;;2.33;;
36185;SDS011;22228;53.222;7.446;2022-12-08T11:25:07;2.13;;;1.80;;
36185;SDS011;22228;53.222;7.446;2022-12-08T11:27:31;3.63;;;2.30;;
36185;SDS011;22228;53.222;7.446;2022-12-08T11:29:52;2.63;;;2.10;;
36185;SDS011;22228;53.222;7.446;2022-12-08T11:32:13;4.23;;;2.43;;
36185;SDS011;22228;53.222;7.446;2022-12-08T11:34:34;12.77;;;10.70;;
36185;SDS011;22228;53.222;7.446;2022-12-08T11:37:00;5.20;;;3.83;;
36185;SDS011;22228;53.222;7.446;2022-12-08T11:39:23;16.47;;;12.10;;
36185;SDS011;22228;53.222;7.446;2022-12-08T11:41:46;7.27;;;2.77;;
36185;SDS011;22228;53.222;7.446;2022-12-08T11:44:12;10.37;;;8.70;;
36185;SDS011;22228;53.222;7.446;2022-12-08T11:46:45;6.60;;;3.97;;
36185;SDS011;22228;53.222;7.446;2022-12-08T11:49:09;6.67;;;4.27;;
36185;SDS011;22228;53.222;7.446;2022-12-08T11:51:32;3.57;;;1.30;;
36185;SDS011;22228;53.222;7.446;2022-12-08T11:54:01;3.00;;;1.23;;
36185;SDS011;22228;53.222;7.446;2022-12-08T11:56:36;4.07;;;2.03;;
36185;SDS011;22228;53.222;7.446;2022-12-08T11:58:59;2.20;;;1.27;;
36185;SDS011;22228;53.222;7.446;2022-12-08T12:01:24;4.83;;;1.10;;
36185;SDS011;22228;53.222;7.446;2022-12-08T12:03:46;3.60;;;0.90;;
36185;SDS011;22228;53.222;7.446;2022-12-08T12:06:17;2.43;;;0.87;;
36185;SDS011;22228;53.222;7.446;2022-12-08T12:08:52;3.43;;;1.10;;
36185;SDS011;22228;53.222;7.446;2022-12-08T12:11:21;6.33;;;1.33;;
36185;SDS011;22228;53.222;7.446;2022-12-08T12:14:10;6.20;;;1.00;;
36185;SDS011;22228;53.222;7.446;2022-12-08T12:16:48;2.00;;;0.90;;
36185;SDS011;22228;53.222;7.446;2022-12-08T12:19:17;3.47;;;0.83;;
36185;SDS011;22228;53.222;7.446;2022-12-08T12:21:41;2.77;;;0.63;;
36185;SDS011;22228;53.222;7.446;2022-12-08T12:24:04;2.17;;;1.00;;
36185;SDS011;22228;53.222;7.446;2022-12-08T12:26:28;4.80;;;0.97;;
36185;SDS011;22228;53.222;7.446;2022-12-08T12:28:52;2.87;;;0.83;;
36185;SDS011;22228;53.222;7.446;2022-12-08T12:31:15;3.70;;;1.00;;
36185;SDS011;22228;53.222;7.446;2022-12-08T12:33:42;3.30;;;1.00;;
36185;SDS011;22228;53.222;7.446;2022-12-08T12:36:03;4.17;;;0.83;;
36185;SDS011;22228;53.222;7.446;2022-12-08T12:38:29;5.70;;;0.70;;
36185;SDS011;22228;53.222;7.446;2022-12-08T12:41:11;3.33;;;0.80;;
36185;SDS011;22228;53.222;7.446;2022-12-08T12:43:33;2.30;;;0.73;;
36185;SDS011;22228;53.222;7.446;2022-12-08T12:48:54;1.80;;;0.77;;
36185;SDS011;22228;53.222;7.446;2022-12-08T12:51:53;2.90;;;0.70;;
36185;SDS011;22228;53.222;7.446;2022-12-08T12:54:21;4.07;;;0.60;;
36185;SDS011;22228;53.222;7.446;2022-12-08T12:56:47;3.63;;;1.00;;
36185;SDS011;22228;53.222;7.446;2022-12-08T12:59:20;2.87;;;0.80;;
36185;SDS011;22228;53.222;7.446;2022-12-08T13:01:53;3.50;;;0.73;;
36185;SDS011;22228;53.222;7.446;2022-12-08T13:04:15;5.60;;;1.33;;
36185;SDS011;22228;53.222;7.446;2022-12-08T13:06:37;3.83;;;1.23;;
36185;SDS011;22228;53.222;7.446;2022-12-08T13:08:59;4.50;;;1.00;;
36185;SDS011;22228;53.222;7.446;2022-12-08T13:11:20;1.57;;;0.70;;
36185;SDS011;22228;53.222;7.446;2022-12-08T13:13:44;5.87;;;0.70;;
36185;SDS011;22228;53.222;7.446;2022-12-08T13:16:23;2.63;;;0.80;;
36185;SDS011;22228;53.222;7.446;2022-12-08T13:18:45;2.70;;;0.87;;
36185;SDS011;22228;53.222;7.446;2022-12-08T13:21:11;6.03;;;1.30;;
36185;SDS011;22228;53.222;7.446;2022-12-08T13:23:41;0.70;;;0.60;;
36185;SDS011;22228;53.222;7.446;2022-12-08T13:26:10;2.30;;;0.77;;
36185;SDS011;22228;53.222;7.446;2022-12-08T13:28:34;1.80;;;0.77;;
36185;SDS011;22228;53.222;7.446;2022-12-08T13:31:43;1.43;;;0.70;;
36185;SDS011;22228;53.222;7.446;2022-12-08T13:34:05;2.40;;;0.80;;
36185;SDS011;22228;53.222;7.446;2022-12-08T13:36:31;1.37;;;0.80;;
36185;SDS011;22228;53.222;7.446;2022-12-08T13:38:56;4.73;;;1.00;;
36185;SDS011;22228;53.222;7.446;2022-12-08T13:41:18;1.70;;;0.90;;
36185;SDS011;22228;53.222;7.446;2022-12-08T13:43:42;1.93;;;1.37;;
36185;SDS011;22228;53.222;7.446;2022-12-08T13:46:08;2.40;;;0.70;;
36185;SDS011;22228;53.222;7.446;2022-12-08T13:48:33;1.53;;;0.83;;
36185;SDS011;22228;53.222;7.446;2022-12-08T13:51:04;2.20;;;0.70;;
36185;SDS011;22228;53.222;7.446;2022-12-08T13:53:33;6.57;;;0.60;;
36185;SDS011;22228;53.222;7.446;2022-12-08T13:55:57;2.00;;;0.60;;
36185;SDS011;22228;53.222;7.446;2022-12-08T13:58:23;1.43;;;0.50;;
36185;SDS011;22228;53.222;7.446;2022-12-08T14:00:52;1.40;;;0.60;;
36185;SDS011;22228;53.222;7.446;2022-12-08T14:03:15;2.67;;;0.70;;
36185;SDS011;22228;53.222;7.446;2022-12-08T14:05:39;1.10;;;0.80;;
36185;SDS011;22228;53.222;7.446;2022-12-08T14:08:01;3.00;;;0.97;;
36185;SDS011;22228;53.222;7.446;2022-12-08T14:10:22;1.93;;;0.80;;
36185;SDS011;22228;53.222;7.446;2022-12-08T14:12:46;2.53;;;0.80;;
36185;SDS011;22228;53.222;7.446;2022-12-08T14:15:15;1.23;;;0.90;;
36185;SDS011;22228;53.222;7.446;2022-12-08T14:17:37;2.07;;;0.90;;
36185;SDS011;22228;53.222;7.446;2022-12-08T14:19:59;2.70;;;0.90;;
36185;SDS011;22228;53.222;7.446;2022-12-08T14:22:22;3.70;;;1.10;;
36185;SDS011;22228;53.222;7.446;2022-12-08T14:24:43;1.03;;;0.73;;
36185;SDS011;22228;53.222;7.446;2022-12-08T14:27:05;1.27;;;0.73;;
36185;SDS011;22228;53.222;7.446;2022-12-08T14:29:31;2.67;;;0.80;;
36185;SDS011;22228;53.222;7.446;2022-12-08T14:32:00;4.13;;;1.07;;
36185;SDS011;22228;53.222;7.446;2022-12-08T14:34:20;2.80;;;0.90;;
36185;SDS011;22228;53.222;7.446;2022-12-08T14:36:41;1.97;;;1.00;;
36185;SDS011;22228;53.222;7.446;2022-12-08T14:39:03;2.53;;;0.90;;
36185;SDS011;22228;53.222;7.446;2022-12-08T14:41:24;2.73;;;0.97;;
36185;SDS011;22228;53.222;7.446;2022-12-08T14:43:46;2.83;;;1.10;;
36185;SDS011;22228;53.222;7.446;2022-12-08T14:46:18;1.87;;;1.00;;
36185;SDS011;22228;53.222;7.446;2022-12-08T14:48:40;1.63;;;1.10;;
36185;SDS011;22228;53.222;7.446;2022-12-08T14:51:03;1.57;;;1.40;;
36185;SDS011;22228;53.222;7.446;2022-12-08T14:53:26;2.60;;;1.00;;
36185;SDS011;22228;53.222;7.446;2022-12-08T14:55:51;2.30;;;1.13;;
36185;SDS011;22228;53.222;7.446;2022-12-08T14:58:15;4.33;;;1.10;;
36185;SDS011;22228;53.222;7.446;2022-12-08T15:00:42;3.87;;;1.10;;
36185;SDS011;22228;53.222;7.446;2022-12-08T15:03:04;2.47;;;0.90;;
36185;SDS011;22228;53.222;7.446;2022-12-08T15:05:27;2.40;;;0.87;;
36185;SDS011;22228;53.222;7.446;2022-12-08T15:07:49;1.20;;;1.00;;
36185;SDS011;22228;53.222;7.446;2022-12-08T15:10:19;0.90;;;0.90;;
36185;SDS011;22228;53.222;7.446;2022-12-08T15:12:56;1.07;;;0.97;;
36185;SDS011;22228;53.222;7.446;2022-12-08T15:15:18;1.50;;;1.10;;
36185;SDS011;22228;53.222;7.446;2022-12-08T15:17:39;1.80;;;1.30;;
36185;SDS011;22228;53.222;7.446;2022-12-08T15:20:01;1.93;;;1.50;;
36185;SDS011;22228;53.222;7.446;2022-12-08T15:22:23;1.67;;;1.33;;
36185;SDS011;22228;53.222;7.446;2022-12-08T15:24:44;1.80;;;1.10;;
36185;SDS011;22228;53.222;7.446;2022-12-08T15:27:04;3.47;;;1.23;;
36185;SDS011;22228;53.222;7.446;2022-12-08T15:29:27;1.47;;;1.33;;
36185;SDS011;22228;53.222;7.446;2022-12-08T15:31:48;17.80;;;8.97;;
36185;SDS011;22228;53.222;7.446;2022-12-08T15:34:09;17.63;;;9.50;;
36185;SDS011;22228;53.222;7.446;2022-12-08T15:36:30;22.43;;;11.80;;
36185;SDS011;22228;53.222;7.446;2022-12-08T15:38:50;17.43;;;10.30;;
36185;SDS011;22228;53.222;7.446;2022-12-08T15:41:11;14.03;;;8.50;;
36185;SDS011;22228;53.222;7.446;2022-12-08T15:43:32;17.80;;;10.27;;
36185;SDS011;22228;53.222;7.446;2022-12-08T15:45:54;15.17;;;8.87;;
36185;SDS011;22228;53.222;7.446;2022-12-08T15:48:15;15.90;;;8.77;;
36185;SDS011;22228;53.222;7.446;2022-12-08T15:50:37;14.43;;;8.70;;
36185;SDS011;22228;53.222;7.446;2022-12-08T15:52:58;16.33;;;9.27;;
36185;SDS011;22228;53.222;7.446;2022-12-08T15:55:19;12.20;;;7.67;;
36185;SDS011;22228;53.222;7.446;2022-12-08T15:57:41;12.73;;;8.90;;
36185;SDS011;22228;53.222;7.446;2022-12-08T16:00:04;11.33;;;8.47;;
36185;SDS011;22228;53.222;7.446;2022-12-08T16:02:27;13.30;;;8.17;;
36185;SDS011;22228;53.222;7.446;2022-12-08T16:04:48;10.47;;;7.23;;
36185;SDS011;22228;53.222;7.446;2022-12-08T16:07:10;7.93;;;6.83;;
36185;SDS011;22228;53.222;7.446;2022-12-08T16:09:40;7.10;;;5.70;;
36185;SDS011;22228;53.222;7.446;2022-12-08T16:12:02;8.10;;;7.40;;
36185;SDS011;22228;53.222;7.446;2022-12-08T16:14:40;8.00;;;7.20;;
36185;SDS011;22228;53.222;7.446;2022-12-08T16:16:54;6.67;;;5.97;;
36185;SDS011;22228;53.222;7.446;2022-12-08T16:19:16;9.00;;;5.90;;
36185;SDS011;22228;53.222;7.446;2022-12-08T16:21:39;6.37;;;5.20;;
36185;SDS011;22228;53.222;7.446;2022-12-08T16:24:00;5.50;;;5.00;;
36185;SDS011;22228;53.222;7.446;2022-12-08T16:26:20;6.67;;;5.57;;
36185;SDS011;22228;53.222;7.446;2022-12-08T16:28:42;5.47;;;4.97;;
36185;SDS011;22228;53.222;7.446;2022-12-08T16:31:02;5.47;;;4.87;;
36185;SDS011;22228;53.222;7.446;2022-12-08T16:33:24;7.53;;;5.67;;
36185;SDS011;22228;53.222;7.446;2022-12-08T16:35:46;7.03;;;6.33;;
36185;SDS011;22228;53.222;7.446;2022-12-08T16:38:10;12.97;;;10.73;;
36185;SDS011;22228;53.222;7.446;2022-12-08T16:40:33;15.67;;;12.03;;
36185;SDS011;22228;53.222;7.446;2022-12-08T16:43:15;10.67;;;9.47;;
36185;SDS011;22228;53.222;7.446;2022-12-08T16:45:53;9.20;;;8.20;;
36185;SDS011;22228;53.222;7.446;2022-12-08T16:48:20;6.97;;;6.27;;
36185;SDS011;22228;53.222;7.446;2022-12-08T16:50:45;6.40;;;5.77;;
36185;SDS011;22228;53.222;7.446;2022-12-08T16:53:14;5.87;;;5.20;;
36185;SDS011;22228;53.222;7.446;2022-12-08T16:55:35;5.70;;;5.20;;
36185;SDS011;22228;53.222;7.446;2022-12-08T16:57:55;5.13;;;4.60;;
36185;SDS011;22228;53.222;7.446;2022-12-08T17:00:21;5.43;;;4.93;;
36185;SDS011;22228;53.222;7.446;2022-12-08T17:02:47;7.70;;;6.80;;
36185;SDS011;22228;53.222;7.446;2022-12-08T17:05:09;9.07;;;7.40;;
36185;SDS011;22228;53.222;7.446;2022-12-08T17:07:33;9.97;;;8.07;;